sensor_id;sensor_type;location;lat;lon;timestamp;temperature;humidity
9125;DHT22;4597;48.730;9.114;2022-07-23T20:10:23;26.20;99.90
9125;DHT22;4597;48.730;9.114;2022-07-23T20:12:49;25.80;99.90
9125;DHT22;4597;48.730;9.114;2022-07-23T20:15:16;25.80;99.90
9125;DHT22;4597;48.730;9.114;2022-07-23T20:17:41;25.80;99.90
9125;DHT22;4597;48.730;9.114;2022-07-23T20:20:08;25.70;99.90
9125;DHT22;4597;48.730;9.114;2022-07-23T20:22:34;25.60;99.90
9125;DHT22;4597;48.730;9.114;2022-07-23T20:25:00;25.60;99.90
9125;DHT22;4597;48.730;9.114;2022-07-23T20:27:26;25.60;99.90
9125;DHT22;4597;48.730;9.114;2022-07-23T20:29:52;25.50;99.90
9125;DHT22;4597;48.730;9.114;2022-07-23T20:32:17;25.50;99.90
9125;DHT22;4597;48.730;9.114;2022-07-23T20:34:43;25.50;99.90
9125;DHT22;4597;48.730;9.114;2022-07-23T20:37:08;25.40;99.90
9125;DHT22;4597;48.730;9.114;2022-07-23T20:39:34;25.30;99.90
9125;DHT22;4597;48.730;9.114;2022-07-23T20:42:00;25.20;99.90
9125;DHT22;4597;48.730;9.114;2022-07-23T20:44:25;25.20;99.90
9125;DHT22;4597;48.730;9.114;2022-07-23T20:46:51;25.10;99.90
9125;DHT22;4597;48.730;9.114;2022-07-23T20:49:16;25.10;99.90
9125;DHT22;4597;48.730;9.114;2022-07-23T20:51:44;25.00;99.90
9125;DHT22;4597;48.730;9.114;2022-07-23T20:54:10;24.90;99.90
9125;DHT22;4597;48.730;9.114;2022-07-23T20:56:35;24.90;99.90
9125;DHT22;4597;48.730;9.114;2022-07-23T20:59:01;24.80;99.90
9125;DHT22;4597;48.730;9.114;2022-07-23T21:01:27;24.80;99.90
9125;DHT22;4597;48.730;9.114;2022-07-23T21:03:52;24.70;99.90
9125;DHT22;4597;48.730;9.114;2022-07-23T21:06:18;24.70;99.90
9125;DHT22;4597;48.730;9.114;2022-07-23T21:08:44;24.60;99.90
9125;DHT22;4597;48.730;9.114;2022-07-23T21:11:09;24.60;99.90
9125;DHT22;4597;48.730;9.114;2022-07-23T21:13:35;24.60;99.90
9125;DHT22;4597;48.730;9.114;2022-07-23T21:16:01;24.50;99.90
9125;DHT22;4597;48.730;9.114;2022-07-23T21:18:26;24.40;99.90
9125;DHT22;4597;48.730;9.114;2022-07-23T21:20:52;24.40;99.90
9125;DHT22;4597;48.730;9.114;2022-07-23T21:23:33;24.30;99.90
9125;DHT22;4597;48.730;9.114;2022-07-23T21:25:59;24.20;99.90
9125;DHT22;4597;48.730;9.114;2022-07-23T21:28:24;24.10;99.90
9125;DHT22;4597;48.730;9.114;2022-07-23T21:30:50;24.00;99.90
9125;DHT22;4597;48.730;9.114;2022-07-23T21:33:16;23.90;99.90
9125;DHT22;4597;48.730;9.114;2022-07-23T21:35:41;23.90;99.90
9125;DHT22;4597;48.730;9.114;2022-07-23T21:38:07;23.80;99.90
9125;DHT22;4597;48.730;9.114;2022-07-23T21:40:32;23.80;99.90
9125;DHT22;4597;48.730;9.114;2022-07-23T21:42:58;23.80;99.90
9125;DHT22;4597;48.730;9.114;2022-07-23T21:45:23;23.70;99.90
9125;DHT22;4597;48.730;9.114;2022-07-23T21:47:49;23.70;99.90
9125;DHT22;4597;48.730;9.114;2022-07-23T21:50:15;23.70;99.90
9125;DHT22;4597;48.730;9.114;2022-07-23T21:52:40;23.60;99.90
9125;DHT22;4597;48.730;9.114;2022-07-23T21:55:06;23.50;99.90
9125;DHT22;4597;48.730;9.114;2022-07-23T21:57:32;23.50;99.90
9125;DHT22;4597;48.730;9.114;2022-07-23T21:59:58;23.50;99.90
9125;DHT22;4597;48.730;9.114;2022-07-23T22:02:24;23.50;99.90
9125;DHT22;4597;48.730;9.114;2022-07-23T22:04:49;23.40;99.90
9125;DHT22;4597;48.730;9.114;2022-07-23T22:07:15;23.40;99.90
9125;DHT22;4597;48.730;9.114;2022-07-23T22:09:41;23.40;99.90
9125;DHT22;4597;48.730;9.114;2022-07-23T22:12:07;23.40;99.90
9125;DHT22;4597;48.730;9.114;2022-07-23T22:14:33;23.40;99.90
9125;DHT22;4597;48.730;9.114;2022-07-23T22:16:59;23.30;99.90
9125;DHT22;4597;48.730;9.114;2022-07-23T22:19:24;23.40;99.90
9125;DHT22;4597;48.730;9.114;2022-07-23T22:21:50;23.30;99.90
9125;DHT22;4597;48.730;9.114;2022-07-23T22:24:16;23.20;99.90
9125;DHT22;4597;48.730;9.114;2022-07-23T22:26:43;23.20;99.90
9125;DHT22;4597;48.730;9.114;2022-07-23T22:29:09;23.20;99.90
9125;DHT22;4597;48.730;9.114;2022-07-23T22:31:35;23.20;99.90
9125;DHT22;4597;48.730;9.114;2022-07-23T22:34:00;23.20;99.90
9125;DHT22;4597;48.730;9.114;2022-07-23T22:36:26;23.20;99.90
9125;DHT22;4597;48.730;9.114;2022-07-23T22:38:51;23.20;99.90
9125;DHT22;4597;48.730;9.114;2022-07-23T22:41:17;23.20;99.90
9125;DHT22;4597;48.730;9.114;2022-07-23T22:43:42;23.20;99.90
9125;DHT22;4597;48.730;9.114;2022-07-23T22:46:08;23.20;99.90
9125;DHT22;4597;48.730;9.114;2022-07-23T22:48:33;23.20;99.90
9125;DHT22;4597;48.730;9.114;2022-07-23T22:50:59;23.20;99.90
9125;DHT22;4597;48.730;9.114;2022-07-23T22:53:24;23.20;99.90
9125;DHT22;4597;48.730;9.114;2022-07-23T22:55:50;23.20;99.90
9125;DHT22;4597;48.730;9.114;2022-07-23T22:58:15;23.10;99.90
9125;DHT22;4597;48.730;9.114;2022-07-23T23:00:41;23.10;99.90
9125;DHT22;4597;48.730;9.114;2022-07-23T23:03:06;23.10;99.90
9125;DHT22;4597;48.730;9.114;2022-07-23T23:05:32;23.10;99.90
9125;DHT22;4597;48.730;9.114;2022-07-23T23:07:57;23.10;99.90
9125;DHT22;4597;48.730;9.114;2022-07-23T23:10:23;23.10;99.90
9125;DHT22;4597;48.730;9.114;2022-07-23T23:12:49;23.00;99.90
9125;DHT22;4597;48.730;9.114;2022-07-23T23:15:14;23.00;99.90
9125;DHT22;4597;48.730;9.114;2022-07-23T23:17:40;23.00;99.90
9125;DHT22;4597;48.730;9.114;2022-07-23T23:20:06;23.00;99.90
9125;DHT22;4597;48.730;9.114;2022-07-23T23:22:31;23.00;99.90
9125;DHT22;4597;48.730;9.114;2022-07-23T23:24:57;23.00;99.90
9125;DHT22;4597;48.730;9.114;2022-07-23T23:27:22;23.00;99.90
9125;DHT22;4597;48.730;9.114;2022-07-23T23:29:48;22.90;99.90
9125;DHT22;4597;48.730;9.114;2022-07-23T23:32:13;22.90;99.90
9125;DHT22;4597;48.730;9.114;2022-07-23T23:34:39;22.90;99.90
9125;DHT22;4597;48.730;9.114;2022-07-23T23:37:05;22.90;99.90
9125;DHT22;4597;48.730;9.114;2022-07-23T23:39:30;22.90;99.90
9125;DHT22;4597;48.730;9.114;2022-07-23T23:41:56;22.80;99.90
9125;DHT22;4597;48.730;9.114;2022-07-23T23:44:21;22.80;99.90
9125;DHT22;4597;48.730;9.114;2022-07-23T23:46:48;22.80;99.90
9125;DHT22;4597;48.730;9.114;2022-07-23T23:49:14;22.70;99.90
9125;DHT22;4597;48.730;9.114;2022-07-23T23:51:40;22.70;99.90
9125;DHT22;4597;48.730;9.114;2022-07-23T23:54:11;22.70;99.90
9125;DHT22;4597;48.730;9.114;2022-07-23T23:56:37;22.70;99.90
9125;DHT22;4597;48.730;9.114;2022-07-23T23:59:03;22.60;99.90
